Milwaukee, WI (53207)

6:50 PM CST on November 22, 2014 (GMT -0600)
E Layton | Change Station
CLOSE
Current Station
Personal Weather Station
Location: Cudahy, WI
Elevation: 712 ft
Nearby Weather Stations

Elev 712 ft 42.96 °N, 87.86 °W | Updated 3 minutes ago

Overcast
Overcast
46.0 °F
Feels Like 46 °F
N
0.0
Wind Variable Wind from SW
Gusts 1.0 mph

Today
High -- | Low -- °F
--% Chance of Precip.
Yesterday
High -- | Low -- °F
Precip. -- in
6:52 AM 4:22 PM
New Moon, 0% visible
Pressure 29.83 in
Visibility 7.0 miles
Clouds Few 1800 ft
Overcast 3100 ft
Windchill 46 °F
Dew Point 44 °F
Humidity 93%
Rainfall 0.11 in
Snow Depth Not available.
UV 0 out of 12
Pollen .10 out of 12
Air Quality Not available.
Flu Activity Not available.
METAR KMKE 222352Z 23010KT 7SM FEW018 OVC031 08/06 A2982 RMK AO2 SLP102 T00830061 10083 20056 55000

More Conditions Fewer Conditions

Pressure 29.83 in
Visibility 7.0 miles
Clouds Few 1800 ft
Overcast 3100 ft
Windchill 46 °F
Dew Point 44 °F
Humidity 93%
Rainfall 0.11 in
Snow Depth Not available.
UV 0 out of 12
Pollen .10 out of 12
Air Quality Not available.
Flu Activity Not available.
METAR KMKE 222352Z 23010KT 7SM FEW018 OVC031 08/06 A2982 RMK AO2 SLP102 T00830061 10083 20056 55000

More Conditions Fewer Conditions

10-Day Weather Forecast

Almanac

Astronomy

Nov. 22, 2014 Rise Set
Actual Time
Civil Twilight
Nautical Twilight
Astronomical Twilight
Moon
Length of Visible Light
Length of Day
Tomorrow will be .
, % of the Moon is Illuminated

Today's Extremes

State Highs State Lows

Community

WunderPhotos

Upload Photos

1,772,938 photos uploaded!

WunderBlogs® & News

Nearby

Air Quality

  Air Quality AQ Index Pollutant
Not available.

Snow Depth

Station Depth Elevation

Earthquake Activity

City Distance Mag. Time & Date
Minimum magnitude displayed is 2.5.

Coastal Water Temperatures

Place Temperature

Nearby Weather Stations